sensor_id;sensor_type;location;lat;lon;timestamp;P1;durP1;ratioP1;P2;durP2;ratioP2
7557;SDS011;3820;51.098;13.716;2023-03-01T00:02:12;60.33;;;33.40;;
7557;SDS011;3820;51.098;13.716;2023-03-01T00:04:39;56.40;;;32.03;;
7557;SDS011;3820;51.098;13.716;2023-03-01T00:07:05;62.10;;;33.73;;
7557;SDS011;3820;51.098;13.716;2023-03-01T00:09:32;62.07;;;33.20;;
7557;SDS011;3820;51.098;13.716;2023-03-01T00:11:58;56.67;;;32.20;;
7557;SDS011;3820;51.098;13.716;2023-03-01T00:14:25;57.87;;;33.63;;
7557;SDS011;3820;51.098;13.716;2023-03-01T00:16:52;57.90;;;33.20;;
7557;SDS011;3820;51.098;13.716;2023-03-01T00:19:19;55.80;;;31.87;;
7557;SDS011;3820;51.098;13.716;2023-03-01T00:21:46;60.83;;;32.67;;
7557;SDS011;3820;51.098;13.716;2023-03-01T00:24:13;58.20;;;31.67;;
7557;SDS011;3820;51.098;13.716;2023-03-01T00:26:41;59.80;;;33.27;;
7557;SDS011;3820;51.098;13.716;2023-03-01T00:29:08;60.67;;;33.83;;
7557;SDS011;3820;51.098;13.716;2023-03-01T00:31:35;62.20;;;33.70;;
7557;SDS011;3820;51.098;13.716;2023-03-01T00:34:02;58.67;;;33.20;;
7557;SDS011;3820;51.098;13.716;2023-03-01T00:36:32;61.70;;;34.27;;
7557;SDS011;3820;51.098;13.716;2023-03-01T00:39:02;62.43;;;34.43;;
7557;SDS011;3820;51.098;13.716;2023-03-01T00:41:30;58.83;;;33.30;;
7557;SDS011;3820;51.098;13.716;2023-03-01T00:43:57;61.80;;;33.37;;
7557;SDS011;3820;51.098;13.716;2023-03-01T00:46:25;59.87;;;33.07;;
7557;SDS011;3820;51.098;13.716;2023-03-01T00:48:52;58.57;;;33.60;;
7557;SDS011;3820;51.098;13.716;2023-03-01T00:51:25;66.67;;;34.00;;
7557;SDS011;3820;51.098;13.716;2023-03-01T00:53:53;63.80;;;33.93;;
7557;SDS011;3820;51.098;13.716;2023-03-01T00:56:25;59.87;;;33.00;;
7557;SDS011;3820;51.098;13.716;2023-03-01T00:58:52;63.63;;;35.13;;
7557;SDS011;3820;51.098;13.716;2023-03-01T01:01:19;59.17;;;34.00;;
7557;SDS011;3820;51.098;13.716;2023-03-01T01:03:51;63.27;;;34.63;;
7557;SDS011;3820;51.098;13.716;2023-03-01T01:10:02;58.23;;;32.47;;
7557;SDS011;3820;51.098;13.716;2023-03-01T01:12:29;61.57;;;34.07;;
7557;SDS011;3820;51.098;13.716;2023-03-01T01:14:56;65.03;;;34.50;;
7557;SDS011;3820;51.098;13.716;2023-03-01T01:17:22;61.67;;;33.53;;
7557;SDS011;3820;51.098;13.716;2023-03-01T01:19:49;65.83;;;33.97;;
7557;SDS011;3820;51.098;13.716;2023-03-01T01:22:16;58.37;;;32.67;;
7557;SDS011;3820;51.098;13.716;2023-03-01T01:24:42;61.33;;;34.30;;
7557;SDS011;3820;51.098;13.716;2023-03-01T01:27:09;62.43;;;33.93;;
7557;SDS011;3820;51.098;13.716;2023-03-01T01:29:35;60.90;;;34.23;;
7557;SDS011;3820;51.098;13.716;2023-03-01T01:32:02;60.47;;;33.80;;
7557;SDS011;3820;51.098;13.716;2023-03-01T01:34:29;64.77;;;35.40;;
7557;SDS011;3820;51.098;13.716;2023-03-01T01:36:56;65.00;;;36.10;;
7557;SDS011;3820;51.098;13.716;2023-03-01T01:39:23;66.00;;;36.33;;
7557;SDS011;3820;51.098;13.716;2023-03-01T01:41:49;62.23;;;35.03;;
7557;SDS011;3820;51.098;13.716;2023-03-01T01:44:20;65.63;;;33.63;;
7557;SDS011;3820;51.098;13.716;2023-03-01T01:46:57;62.90;;;33.43;;
7557;SDS011;3820;51.098;13.716;2023-03-01T01:51:57;65.30;;;35.40;;
7557;SDS011;3820;51.098;13.716;2023-03-01T01:54:47;65.70;;;35.53;;
7557;SDS011;3820;51.098;13.716;2023-03-01T01:57:29;66.40;;;35.37;;
7557;SDS011;3820;51.098;13.716;2023-03-01T02:00:00;64.33;;;35.03;;
7557;SDS011;3820;51.098;13.716;2023-03-01T02:02:30;59.80;;;33.80;;
7557;SDS011;3820;51.098;13.716;2023-03-01T02:08:02;69.33;;;35.20;;
7557;SDS011;3820;51.098;13.716;2023-03-01T02:10:29;59.83;;;32.83;;
7557;SDS011;3820;51.098;13.716;2023-03-01T02:13:00;68.33;;;35.00;;
7557;SDS011;3820;51.098;13.716;2023-03-01T02:15:27;63.03;;;32.80;;
7557;SDS011;3820;51.098;13.716;2023-03-01T02:17:58;64.87;;;33.23;;
7557;SDS011;3820;51.098;13.716;2023-03-01T02:20:40;61.70;;;33.20;;
7557;SDS011;3820;51.098;13.716;2023-03-01T02:23:10;59.00;;;33.37;;
7557;SDS011;3820;51.098;13.716;2023-03-01T02:28:38;62.27;;;33.10;;
7557;SDS011;3820;51.098;13.716;2023-03-01T02:31:07;59.10;;;32.43;;
7557;SDS011;3820;51.098;13.716;2023-03-01T02:33:53;59.50;;;32.50;;
7557;SDS011;3820;51.098;13.716;2023-03-01T02:36:21;59.23;;;32.83;;
7557;SDS011;3820;51.098;13.716;2023-03-01T02:38:51;65.77;;;34.93;;
7557;SDS011;3820;51.098;13.716;2023-03-01T02:41:20;59.97;;;33.43;;
7557;SDS011;3820;51.098;13.716;2023-03-01T02:43:47;65.23;;;33.60;;
7557;SDS011;3820;51.098;13.716;2023-03-01T02:46:16;58.50;;;30.97;;
7557;SDS011;3820;51.098;13.716;2023-03-01T02:48:54;59.53;;;33.40;;
7557;SDS011;3820;51.098;13.716;2023-03-01T02:54:05;60.50;;;32.37;;
7557;SDS011;3820;51.098;13.716;2023-03-01T02:56:52;60.20;;;32.20;;
7557;SDS011;3820;51.098;13.716;2023-03-01T02:59:20;63.77;;;33.67;;
7557;SDS011;3820;51.098;13.716;2023-03-01T03:01:48;62.43;;;34.23;;
7557;SDS011;3820;51.098;13.716;2023-03-01T03:04:16;62.33;;;33.77;;
7557;SDS011;3820;51.098;13.716;2023-03-01T03:06:44;60.70;;;33.17;;
7557;SDS011;3820;51.098;13.716;2023-03-01T03:09:12;60.60;;;32.57;;
7557;SDS011;3820;51.098;13.716;2023-03-01T03:11:42;55.80;;;32.07;;
7557;SDS011;3820;51.098;13.716;2023-03-01T03:14:10;59.30;;;31.07;;
7557;SDS011;3820;51.098;13.716;2023-03-01T03:16:46;58.13;;;31.87;;
7557;SDS011;3820;51.098;13.716;2023-03-01T03:19:13;56.37;;;31.63;;
7557;SDS011;3820;51.098;13.716;2023-03-01T03:21:41;62.37;;;32.20;;
7557;SDS011;3820;51.098;13.716;2023-03-01T03:24:08;62.33;;;30.87;;
7557;SDS011;3820;51.098;13.716;2023-03-01T03:26:34;60.60;;;31.77;;
7557;SDS011;3820;51.098;13.716;2023-03-01T03:29:01;59.07;;;31.83;;
7557;SDS011;3820;51.098;13.716;2023-03-01T03:31:28;58.60;;;31.67;;
7557;SDS011;3820;51.098;13.716;2023-03-01T03:33:55;60.73;;;32.10;;
7557;SDS011;3820;51.098;13.716;2023-03-01T03:36:23;59.20;;;32.40;;
7557;SDS011;3820;51.098;13.716;2023-03-01T03:38:50;61.07;;;32.40;;
7557;SDS011;3820;51.098;13.716;2023-03-01T03:41:17;58.17;;;31.67;;
7557;SDS011;3820;51.098;13.716;2023-03-01T03:43:44;61.63;;;34.00;;
7557;SDS011;3820;51.098;13.716;2023-03-01T03:46:11;56.90;;;31.40;;
7557;SDS011;3820;51.098;13.716;2023-03-01T03:48:40;60.43;;;32.37;;
7557;SDS011;3820;51.098;13.716;2023-03-01T03:51:15;57.43;;;32.07;;
7557;SDS011;3820;51.098;13.716;2023-03-01T03:53:43;58.27;;;32.30;;
7557;SDS011;3820;51.098;13.716;2023-03-01T03:56:11;57.90;;;32.07;;
7557;SDS011;3820;51.098;13.716;2023-03-01T03:58:37;57.40;;;29.97;;
7557;SDS011;3820;51.098;13.716;2023-03-01T04:01:04;66.67;;;33.20;;
7557;SDS011;3820;51.098;13.716;2023-03-01T04:03:31;62.63;;;32.53;;
7557;SDS011;3820;51.098;13.716;2023-03-01T04:05:59;60.53;;;32.33;;
7557;SDS011;3820;51.098;13.716;2023-03-01T04:08:26;57.37;;;31.93;;
7557;SDS011;3820;51.098;13.716;2023-03-01T04:10:56;57.63;;;31.83;;
7557;SDS011;3820;51.098;13.716;2023-03-01T04:13:24;62.67;;;31.20;;
7557;SDS011;3820;51.098;13.716;2023-03-01T04:15:52;65.57;;;34.37;;
7557;SDS011;3820;51.098;13.716;2023-03-01T04:18:20;62.50;;;32.73;;
7557;SDS011;3820;51.098;13.716;2023-03-01T04:20:51;59.83;;;31.57;;
7557;SDS011;3820;51.098;13.716;2023-03-01T04:23:21;62.23;;;32.20;;
7557;SDS011;3820;51.098;13.716;2023-03-01T04:25:49;62.07;;;31.23;;
7557;SDS011;3820;51.098;13.716;2023-03-01T04:30:51;65.40;;;33.47;;
7557;SDS011;3820;51.098;13.716;2023-03-01T04:33:18;59.87;;;31.63;;
7557;SDS011;3820;51.098;13.716;2023-03-01T04:35:45;64.80;;;32.47;;
7557;SDS011;3820;51.098;13.716;2023-03-01T04:38:16;62.73;;;32.10;;
7557;SDS011;3820;51.098;13.716;2023-03-01T04:40:45;59.00;;;31.13;;
7557;SDS011;3820;51.098;13.716;2023-03-01T04:43:12;55.93;;;30.70;;
7557;SDS011;3820;51.098;13.716;2023-03-01T04:45:41;59.63;;;31.60;;
7557;SDS011;3820;51.098;13.716;2023-03-01T04:48:08;59.43;;;30.77;;
7557;SDS011;3820;51.098;13.716;2023-03-01T04:50:35;62.70;;;31.97;;
7557;SDS011;3820;51.098;13.716;2023-03-01T04:53:02;57.00;;;30.40;;
7557;SDS011;3820;51.098;13.716;2023-03-01T04:55:29;58.27;;;31.30;;
7557;SDS011;3820;51.098;13.716;2023-03-01T04:57:55;55.93;;;30.27;;
7557;SDS011;3820;51.098;13.716;2023-03-01T05:00:22;57.73;;;31.77;;
7557;SDS011;3820;51.098;13.716;2023-03-01T05:02:50;57.93;;;31.07;;
7557;SDS011;3820;51.098;13.716;2023-03-01T05:07:55;55.53;;;30.50;;
7557;SDS011;3820;51.098;13.716;2023-03-01T05:10:23;59.07;;;31.43;;
7557;SDS011;3820;51.098;13.716;2023-03-01T05:12:50;59.27;;;30.23;;
7557;SDS011;3820;51.098;13.716;2023-03-01T05:15:18;56.00;;;29.70;;
7557;SDS011;3820;51.098;13.716;2023-03-01T05:17:45;60.80;;;30.70;;
7557;SDS011;3820;51.098;13.716;2023-03-01T05:20:12;56.10;;;30.47;;
7557;SDS011;3820;51.098;13.716;2023-03-01T05:22:39;58.57;;;31.70;;
7557;SDS011;3820;51.098;13.716;2023-03-01T05:25:06;57.07;;;30.27;;
7557;SDS011;3820;51.098;13.716;2023-03-01T05:27:33;58.53;;;30.83;;
7557;SDS011;3820;51.098;13.716;2023-03-01T05:30:01;59.10;;;31.73;;
7557;SDS011;3820;51.098;13.716;2023-03-01T05:32:40;64.83;;;32.97;;
7557;SDS011;3820;51.098;13.716;2023-03-01T05:35:11;62.53;;;33.53;;
7557;SDS011;3820;51.098;13.716;2023-03-01T05:37:46;63.33;;;33.57;;
7557;SDS011;3820;51.098;13.716;2023-03-01T05:40:15;62.50;;;33.20;;
7557;SDS011;3820;51.098;13.716;2023-03-01T05:42:50;62.53;;;33.10;;
7557;SDS011;3820;51.098;13.716;2023-03-01T05:45:20;60.30;;;31.63;;
7557;SDS011;3820;51.098;13.716;2023-03-01T05:47:47;61.20;;;32.27;;
7557;SDS011;3820;51.098;13.716;2023-03-01T05:50:19;63.33;;;32.23;;
7557;SDS011;3820;51.098;13.716;2023-03-01T05:52:50;60.83;;;31.83;;
7557;SDS011;3820;51.098;13.716;2023-03-01T05:55:19;64.27;;;31.77;;
7557;SDS011;3820;51.098;13.716;2023-03-01T05:57:47;59.23;;;31.77;;
7557;SDS011;3820;51.098;13.716;2023-03-01T06:00:14;66.10;;;33.57;;
7557;SDS011;3820;51.098;13.716;2023-03-01T06:02:42;65.60;;;32.67;;
7557;SDS011;3820;51.098;13.716;2023-03-01T06:05:09;61.90;;;32.57;;
7557;SDS011;3820;51.098;13.716;2023-03-01T06:07:37;64.13;;;32.73;;
7557;SDS011;3820;51.098;13.716;2023-03-01T06:10:04;61.77;;;31.90;;
7557;SDS011;3820;51.098;13.716;2023-03-01T06:12:32;56.20;;;30.70;;
7557;SDS011;3820;51.098;13.716;2023-03-01T06:14:59;60.03;;;32.30;;
7557;SDS011;3820;51.098;13.716;2023-03-01T06:17:28;66.63;;;34.97;;
7557;SDS011;3820;51.098;13.716;2023-03-01T06:19:55;77.17;;;38.17;;
7557;SDS011;3820;51.098;13.716;2023-03-01T06:22:22;80.50;;;40.33;;
7557;SDS011;3820;51.098;13.716;2023-03-01T06:24:48;85.93;;;43.10;;
7557;SDS011;3820;51.098;13.716;2023-03-01T06:27:16;74.73;;;38.47;;
7557;SDS011;3820;51.098;13.716;2023-03-01T06:29:42;71.33;;;38.53;;
7557;SDS011;3820;51.098;13.716;2023-03-01T06:32:09;70.73;;;40.57;;
7557;SDS011;3820;51.098;13.716;2023-03-01T06:34:35;70.13;;;39.17;;
7557;SDS011;3820;51.098;13.716;2023-03-01T06:37:02;55.27;;;33.40;;
7557;SDS011;3820;51.098;13.716;2023-03-01T06:39:31;57.43;;;33.80;;
7557;SDS011;3820;51.098;13.716;2023-03-01T06:41:58;50.10;;;31.90;;
7557;SDS011;3820;51.098;13.716;2023-03-01T06:44:25;42.73;;;29.23;;
7557;SDS011;3820;51.098;13.716;2023-03-01T06:46:52;43.23;;;27.50;;
7557;SDS011;3820;51.098;13.716;2023-03-01T06:49:19;38.53;;;26.00;;
7557;SDS011;3820;51.098;13.716;2023-03-01T06:51:46;41.57;;;27.57;;
7557;SDS011;3820;51.098;13.716;2023-03-01T06:54:12;36.63;;;26.03;;
7557;SDS011;3820;51.098;13.716;2023-03-01T06:56:39;38.33;;;26.97;;
7557;SDS011;3820;51.098;13.716;2023-03-01T06:59:05;39.60;;;26.50;;
7557;SDS011;3820;51.098;13.716;2023-03-01T07:01:32;40.67;;;26.10;;
7557;SDS011;3820;51.098;13.716;2023-03-01T07:03:58;36.00;;;24.60;;
7557;SDS011;3820;51.098;13.716;2023-03-01T07:06:25;38.10;;;24.73;;
7557;SDS011;3820;51.098;13.716;2023-03-01T07:08:51;41.03;;;25.53;;
7557;SDS011;3820;51.098;13.716;2023-03-01T07:11:18;39.13;;;26.03;;
7557;SDS011;3820;51.098;13.716;2023-03-01T07:13:45;36.80;;;24.87;;
7557;SDS011;3820;51.098;13.716;2023-03-01T07:16:12;40.03;;;26.43;;
7557;SDS011;3820;51.098;13.716;2023-03-01T07:18:40;37.13;;;24.87;;
7557;SDS011;3820;51.098;13.716;2023-03-01T07:21:07;35.93;;;24.17;;
7557;SDS011;3820;51.098;13.716;2023-03-01T07:23:34;36.20;;;24.90;;
7557;SDS011;3820;51.098;13.716;2023-03-01T07:26:01;37.33;;;24.97;;
7557;SDS011;3820;51.098;13.716;2023-03-01T07:28:28;34.63;;;23.53;;
7557;SDS011;3820;51.098;13.716;2023-03-01T07:30:55;33.57;;;23.37;;
7557;SDS011;3820;51.098;13.716;2023-03-01T07:33:21;35.17;;;23.60;;
7557;SDS011;3820;51.098;13.716;2023-03-01T07:35:48;37.23;;;24.33;;
7557;SDS011;3820;51.098;13.716;2023-03-01T07:38:15;38.13;;;23.97;;
7557;SDS011;3820;51.098;13.716;2023-03-01T07:40:41;33.30;;;24.77;;
7557;SDS011;3820;51.098;13.716;2023-03-01T07:43:07;37.33;;;25.37;;
7557;SDS011;3820;51.098;13.716;2023-03-01T07:45:34;38.23;;;25.43;;
7557;SDS011;3820;51.098;13.716;2023-03-01T07:48:00;39.07;;;26.13;;
7557;SDS011;3820;51.098;13.716;2023-03-01T07:50:27;37.17;;;26.57;;
7557;SDS011;3820;51.098;13.716;2023-03-01T07:52:53;36.63;;;26.80;;
7557;SDS011;3820;51.098;13.716;2023-03-01T07:55:20;33.13;;;24.83;;
7557;SDS011;3820;51.098;13.716;2023-03-01T07:57:47;36.37;;;25.70;;
7557;SDS011;3820;51.098;13.716;2023-03-01T08:00:13;35.97;;;25.77;;
7557;SDS011;3820;51.098;13.716;2023-03-01T08:02:40;39.07;;;25.63;;
7557;SDS011;3820;51.098;13.716;2023-03-01T08:05:09;32.93;;;25.03;;
7557;SDS011;3820;51.098;13.716;2023-03-01T08:07:36;34.30;;;24.80;;
7557;SDS011;3820;51.098;13.716;2023-03-01T08:10:03;38.63;;;25.50;;
7557;SDS011;3820;51.098;13.716;2023-03-01T08:12:29;33.57;;;25.20;;
7557;SDS011;3820;51.098;13.716;2023-03-01T08:14:56;36.93;;;26.17;;
7557;SDS011;3820;51.098;13.716;2023-03-01T08:17:23;36.50;;;25.83;;
7557;SDS011;3820;51.098;13.716;2023-03-01T08:19:49;37.30;;;27.07;;
7557;SDS011;3820;51.098;13.716;2023-03-01T08:22:16;34.13;;;25.80;;
7557;SDS011;3820;51.098;13.716;2023-03-01T08:24:42;35.10;;;24.83;;
7557;SDS011;3820;51.098;13.716;2023-03-01T08:27:09;36.87;;;26.03;;
7557;SDS011;3820;51.098;13.716;2023-03-01T08:29:36;38.63;;;28.13;;
7557;SDS011;3820;51.098;13.716;2023-03-01T08:32:02;38.47;;;27.47;;
7557;SDS011;3820;51.098;13.716;2023-03-01T08:34:29;37.13;;;27.73;;
7557;SDS011;3820;51.098;13.716;2023-03-01T08:36:57;38.10;;;27.33;;
7557;SDS011;3820;51.098;13.716;2023-03-01T08:39:24;35.90;;;27.47;;
7557;SDS011;3820;51.098;13.716;2023-03-01T08:41:50;36.60;;;26.00;;
7557;SDS011;3820;51.098;13.716;2023-03-01T08:44:17;40.80;;;26.40;;
7557;SDS011;3820;51.098;13.716;2023-03-01T08:46:44;36.63;;;25.53;;
7557;SDS011;3820;51.098;13.716;2023-03-01T08:49:15;34.47;;;25.20;;
7557;SDS011;3820;51.098;13.716;2023-03-01T08:51:43;34.40;;;25.63;;
7557;SDS011;3820;51.098;13.716;2023-03-01T08:54:11;32.43;;;25.27;;
7557;SDS011;3820;51.098;13.716;2023-03-01T08:56:39;33.03;;;25.27;;
7557;SDS011;3820;51.098;13.716;2023-03-01T08:59:05;32.17;;;25.57;;
7557;SDS011;3820;51.098;13.716;2023-03-01T09:01:32;33.90;;;26.37;;
7557;SDS011;3820;51.098;13.716;2023-03-01T09:03:59;35.67;;;26.23;;
7557;SDS011;3820;51.098;13.716;2023-03-01T09:06:25;34.00;;;25.47;;
7557;SDS011;3820;51.098;13.716;2023-03-01T09:08:52;36.70;;;26.20;;
7557;SDS011;3820;51.098;13.716;2023-03-01T09:11:19;36.37;;;25.77;;
7557;SDS011;3820;51.098;13.716;2023-03-01T09:13:47;37.00;;;26.97;;
7557;SDS011;3820;51.098;13.716;2023-03-01T09:16:15;34.37;;;25.00;;
7557;SDS011;3820;51.098;13.716;2023-03-01T09:18:43;32.75;;;24.92;;
7557;SDS011;3820;51.098;13.716;2023-03-01T09:21:12;33.37;;;25.63;;
7557;SDS011;3820;51.098;13.716;2023-03-01T09:23:41;33.40;;;24.83;;
7557;SDS011;3820;51.098;13.716;2023-03-01T09:26:11;34.27;;;26.67;;
7557;SDS011;3820;51.098;13.716;2023-03-01T09:28:39;30.70;;;24.85;;
7557;SDS011;3820;51.098;13.716;2023-03-01T09:31:11;34.08;;;24.27;;
7557;SDS011;3820;51.098;13.716;2023-03-01T09:33:40;30.58;;;24.83;;
7557;SDS011;3820;51.098;13.716;2023-03-01T09:36:09;32.95;;;25.05;;
7557;SDS011;3820;51.098;13.716;2023-03-01T09:38:37;29.55;;;24.55;;
7557;SDS011;3820;51.098;13.716;2023-03-01T09:41:11;30.15;;;24.73;;
7557;SDS011;3820;51.098;13.716;2023-03-01T09:46:48;30.13;;;25.15;;
7557;SDS011;3820;51.098;13.716;2023-03-01T09:49:17;31.02;;;25.42;;
7557;SDS011;3820;51.098;13.716;2023-03-01T09:51:54;31.73;;;25.70;;
7557;SDS011;3820;51.098;13.716;2023-03-01T09:54:22;33.05;;;24.77;;
7557;SDS011;3820;51.098;13.716;2023-03-01T09:57:04;37.47;;;27.08;;
7557;SDS011;3820;51.098;13.716;2023-03-01T10:04:57;32.90;;;25.98;;
7557;SDS011;3820;51.098;13.716;2023-03-01T10:07:51;34.08;;;25.10;;
7557;SDS011;3820;51.098;13.716;2023-03-01T10:10:29;35.30;;;26.83;;
7557;SDS011;3820;51.098;13.716;2023-03-01T10:13:00;34.17;;;25.58;;
7557;SDS011;3820;51.098;13.716;2023-03-01T10:15:35;32.53;;;25.00;;
7557;SDS011;3820;51.098;13.716;2023-03-01T10:18:12;31.27;;;22.55;;
7557;SDS011;3820;51.098;13.716;2023-03-01T10:20:46;31.60;;;22.33;;
7557;SDS011;3820;51.098;13.716;2023-03-01T10:23:32;29.10;;;22.17;;
7557;SDS011;3820;51.098;13.716;2023-03-01T10:31:38;32.90;;;24.17;;
7557;SDS011;3820;51.098;13.716;2023-03-01T10:34:10;29.38;;;22.25;;
7557;SDS011;3820;51.098;13.716;2023-03-01T10:36:43;34.97;;;24.17;;
7557;SDS011;3820;51.098;13.716;2023-03-01T10:39:15;26.83;;;21.50;;
7557;SDS011;3820;51.098;13.716;2023-03-01T10:42:18;29.92;;;21.38;;
7557;SDS011;3820;51.098;13.716;2023-03-01T10:44:46;26.77;;;20.38;;
7557;SDS011;3820;51.098;13.716;2023-03-01T10:47:22;29.60;;;20.45;;
7557;SDS011;3820;51.098;13.716;2023-03-01T10:49:55;25.80;;;19.52;;
7557;SDS011;3820;51.098;13.716;2023-03-01T10:52:36;27.95;;;19.02;;
7557;SDS011;3820;51.098;13.716;2023-03-01T10:55:04;23.88;;;18.60;;
7557;SDS011;3820;51.098;13.716;2023-03-01T10:57:50;24.50;;;19.42;;
7557;SDS011;3820;51.098;13.716;2023-03-01T11:03:24;22.90;;;18.33;;
7557;SDS011;3820;51.098;13.716;2023-03-01T11:08:32;23.58;;;18.88;;
7557;SDS011;3820;51.098;13.716;2023-03-01T11:11:04;23.80;;;18.00;;
7557;SDS011;3820;51.098;13.716;2023-03-01T11:13:32;25.60;;;18.30;;
7557;SDS011;3820;51.098;13.716;2023-03-01T11:15:59;24.75;;;17.83;;
7557;SDS011;3820;51.098;13.716;2023-03-01T11:18:27;25.60;;;18.60;;
7557;SDS011;3820;51.098;13.716;2023-03-01T11:21:12;27.30;;;19.92;;
7557;SDS011;3820;51.098;13.716;2023-03-01T11:23:39;28.70;;;20.13;;
7557;SDS011;3820;51.098;13.716;2023-03-01T11:26:07;26.50;;;19.30;;
7557;SDS011;3820;51.098;13.716;2023-03-01T11:28:37;26.85;;;21.17;;
7557;SDS011;3820;51.098;13.716;2023-03-01T11:31:06;28.40;;;19.05;;
7557;SDS011;3820;51.098;13.716;2023-03-01T11:33:58;27.58;;;18.75;;
7557;SDS011;3820;51.098;13.716;2023-03-01T11:36:41;27.40;;;18.85;;
7557;SDS011;3820;51.098;13.716;2023-03-01T11:39:56;23.98;;;18.27;;
7557;SDS011;3820;51.098;13.716;2023-03-01T11:44:58;23.45;;;17.33;;
7557;SDS011;3820;51.098;13.716;2023-03-01T11:50:53;22.65;;;15.65;;
7557;SDS011;3820;51.098;13.716;2023-03-01T11:53:35;22.97;;;15.50;;
7557;SDS011;3820;51.098;13.716;2023-03-01T12:04:27;20.63;;;14.43;;
7557;SDS011;3820;51.098;13.716;2023-03-01T12:07:03;22.33;;;15.03;;
7557;SDS011;3820;51.098;13.716;2023-03-01T12:09:49;23.40;;;18.00;;
7557;SDS011;3820;51.098;13.716;2023-03-01T12:20:20;26.23;;;18.80;;
7557;SDS011;3820;51.098;13.716;2023-03-01T12:26:21;34.83;;;20.30;;
7557;SDS011;3820;51.098;13.716;2023-03-01T12:47:42;30.10;;;20.10;;
7557;SDS011;3820;51.098;13.716;2023-03-01T12:50:24;23.47;;;18.13;;
7557;SDS011;3820;51.098;13.716;2023-03-01T12:52:57;24.03;;;17.83;;
7557;SDS011;3820;51.098;13.716;2023-03-01T12:55:26;27.87;;;18.17;;
7557;SDS011;3820;51.098;13.716;2023-03-01T13:06:21;23.80;;;16.37;;
7557;SDS011;3820;51.098;13.716;2023-03-01T13:09:23;22.93;;;15.77;;
7557;SDS011;3820;51.098;13.716;2023-03-01T13:11:52;27.17;;;17.67;;
7557;SDS011;3820;51.098;13.716;2023-03-01T13:16:54;24.57;;;17.80;;
7557;SDS011;3820;51.098;13.716;2023-03-01T13:19:22;26.77;;;17.57;;
7557;SDS011;3820;51.098;13.716;2023-03-01T13:21:50;26.23;;;17.13;;
7557;SDS011;3820;51.098;13.716;2023-03-01T13:24:24;25.83;;;17.87;;
7557;SDS011;3820;51.098;13.716;2023-03-01T13:32:33;25.23;;;17.27;;
7557;SDS011;3820;51.098;13.716;2023-03-01T13:37:37;26.07;;;17.87;;
7557;SDS011;3820;51.098;13.716;2023-03-01T13:40:05;25.10;;;16.53;;
7557;SDS011;3820;51.098;13.716;2023-03-01T13:42:54;27.13;;;18.10;;
7557;SDS011;3820;51.098;13.716;2023-03-01T13:45:36;27.30;;;17.87;;
7557;SDS011;3820;51.098;13.716;2023-03-01T13:48:15;25.27;;;17.43;;
7557;SDS011;3820;51.098;13.716;2023-03-01T13:50:48;24.60;;;17.50;;
7557;SDS011;3820;51.098;13.716;2023-03-01T13:53:18;26.40;;;18.20;;
7557;SDS011;3820;51.098;13.716;2023-03-01T13:55:56;25.73;;;18.33;;
7557;SDS011;3820;51.098;13.716;2023-03-01T14:03:27;27.53;;;17.30;;
7557;SDS011;3820;51.098;13.716;2023-03-01T14:08:41;24.03;;;14.77;;
7557;SDS011;3820;51.098;13.716;2023-03-01T14:11:20;23.97;;;16.57;;
7557;SDS011;3820;51.098;13.716;2023-03-01T14:16:53;24.40;;;16.70;;
7557;SDS011;3820;51.098;13.716;2023-03-01T14:19:39;25.33;;;18.03;;
7557;SDS011;3820;51.098;13.716;2023-03-01T14:22:24;28.27;;;18.23;;
7557;SDS011;3820;51.098;13.716;2023-03-01T14:25:05;25.63;;;18.37;;
7557;SDS011;3820;51.098;13.716;2023-03-01T14:27:41;26.23;;;17.27;;
7557;SDS011;3820;51.098;13.716;2023-03-01T14:30:24;30.20;;;19.00;;
7557;SDS011;3820;51.098;13.716;2023-03-01T14:33:03;28.93;;;18.87;;
7557;SDS011;3820;51.098;13.716;2023-03-01T14:35:35;25.50;;;18.37;;
7557;SDS011;3820;51.098;13.716;2023-03-01T14:38:02;27.13;;;18.10;;
7557;SDS011;3820;51.098;13.716;2023-03-01T14:40:33;29.40;;;18.83;;
7557;SDS011;3820;51.098;13.716;2023-03-01T14:43:02;26.33;;;18.20;;
7557;SDS011;3820;51.098;13.716;2023-03-01T14:45:36;27.80;;;18.97;;
7557;SDS011;3820;51.098;13.716;2023-03-01T14:48:03;27.00;;;17.93;;
7557;SDS011;3820;51.098;13.716;2023-03-01T14:50:31;29.40;;;18.67;;
7557;SDS011;3820;51.098;13.716;2023-03-01T14:52:59;25.90;;;18.50;;
7557;SDS011;3820;51.098;13.716;2023-03-01T14:55:32;26.90;;;17.37;;
7557;SDS011;3820;51.098;13.716;2023-03-01T14:58:02;22.97;;;15.77;;
7557;SDS011;3820;51.098;13.716;2023-03-01T15:00:31;26.87;;;17.30;;
7557;SDS011;3820;51.098;13.716;2023-03-01T15:03:11;26.00;;;17.53;;
7557;SDS011;3820;51.098;13.716;2023-03-01T15:05:41;25.97;;;17.77;;
7557;SDS011;3820;51.098;13.716;2023-03-01T15:08:15;27.77;;;17.70;;
7557;SDS011;3820;51.098;13.716;2023-03-01T15:10:55;27.53;;;17.13;;
7557;SDS011;3820;51.098;13.716;2023-03-01T15:13:25;24.73;;;17.00;;
7557;SDS011;3820;51.098;13.716;2023-03-01T15:16:00;27.30;;;17.20;;
7557;SDS011;3820;51.098;13.716;2023-03-01T15:18:29;24.77;;;16.77;;
7557;SDS011;3820;51.098;13.716;2023-03-01T15:21:04;27.50;;;18.03;;
7557;SDS011;3820;51.098;13.716;2023-03-01T15:23:31;27.17;;;17.50;;
7557;SDS011;3820;51.098;13.716;2023-03-01T15:25:58;24.47;;;16.77;;
7557;SDS011;3820;51.098;13.716;2023-03-01T15:28:29;25.23;;;16.80;;
7557;SDS011;3820;51.098;13.716;2023-03-01T15:31:00;26.97;;;17.30;;
7557;SDS011;3820;51.098;13.716;2023-03-01T15:33:30;22.93;;;16.57;;
7557;SDS011;3820;51.098;13.716;2023-03-01T15:35:59;24.27;;;16.20;;
7557;SDS011;3820;51.098;13.716;2023-03-01T15:41:46;22.83;;;15.50;;
7557;SDS011;3820;51.098;13.716;2023-03-01T15:43:54;22.57;;;15.27;;
7557;SDS011;3820;51.098;13.716;2023-03-01T15:46:23;24.03;;;15.50;;
7557;SDS011;3820;51.098;13.716;2023-03-01T15:48:57;23.50;;;15.23;;
7557;SDS011;3820;51.098;13.716;2023-03-01T15:51:29;22.07;;;15.30;;
7557;SDS011;3820;51.098;13.716;2023-03-01T15:53:58;25.10;;;15.47;;
7557;SDS011;3820;51.098;13.716;2023-03-01T15:56:27;24.03;;;15.13;;
7557;SDS011;3820;51.098;13.716;2023-03-01T15:58:56;22.97;;;15.23;;
7557;SDS011;3820;51.098;13.716;2023-03-01T16:01:24;24.23;;;15.63;;
7557;SDS011;3820;51.098;13.716;2023-03-01T16:03:51;24.10;;;15.53;;
7557;SDS011;3820;51.098;13.716;2023-03-01T16:06:17;25.87;;;15.97;;
7557;SDS011;3820;51.098;13.716;2023-03-01T16:08:44;27.43;;;17.00;;
7557;SDS011;3820;51.098;13.716;2023-03-01T16:11:15;21.70;;;16.00;;
7557;SDS011;3820;51.098;13.716;2023-03-01T16:13:43;26.43;;;18.00;;
7557;SDS011;3820;51.098;13.716;2023-03-01T16:16:11;30.47;;;19.97;;
7557;SDS011;3820;51.098;13.716;2023-03-01T16:18:42;32.97;;;19.37;;
7557;SDS011;3820;51.098;13.716;2023-03-01T16:21:18;30.43;;;18.80;;
7557;SDS011;3820;51.098;13.716;2023-03-01T16:23:46;26.70;;;18.63;;
7557;SDS011;3820;51.098;13.716;2023-03-01T16:26:13;29.97;;;18.23;;
7557;SDS011;3820;51.098;13.716;2023-03-01T16:28:41;26.63;;;18.80;;
7557;SDS011;3820;51.098;13.716;2023-03-01T16:31:09;28.87;;;18.17;;
7557;SDS011;3820;51.098;13.716;2023-03-01T16:33:36;29.73;;;18.07;;
7557;SDS011;3820;51.098;13.716;2023-03-01T16:36:07;32.33;;;20.83;;
7557;SDS011;3820;51.098;13.716;2023-03-01T16:38:35;29.83;;;19.63;;
7557;SDS011;3820;51.098;13.716;2023-03-01T16:41:02;28.00;;;19.27;;
7557;SDS011;3820;51.098;13.716;2023-03-01T16:43:30;32.53;;;19.00;;
7557;SDS011;3820;51.098;13.716;2023-03-01T16:45:57;29.20;;;18.90;;
7557;SDS011;3820;51.098;13.716;2023-03-01T16:48:25;29.27;;;17.77;;